Time;durP1;ratioP1;P1;durP2;ratioP2;P2;SDS_P1;SDS_P2;PMS_P1;PMS_P2;Temp;Humidity;BMP_temperature;BMP_pressure;BME280_temperature;BME280_humidity;BME280_pressure;Samples;Min_cycle;Max_cycle;Signal;HPM_P1;HPM_P2
2023/09/28 00:02:15;;;;;;;13.82;8.70;;;18.70;99.90;;;;;;6239206;23;20012;-73
2023/09/28 00:05:01;;;;;;;13.60;9.88;;;18.80;99.90;;;;;;6239796;23;20008;-74
2023/09/28 00:07:49;;;;;;;11.85;9.30;;;18.70;99.90;;;;;;6239560;23;20499;-75
2023/09/28 00:10:36;;;;;;;14.63;10.18;;;18.70;99.90;;;;;;6240538;23;20016;-74
2023/09/28 00:13:22;;;;;;;14.70;10.27;;;18.70;99.90;;;;;;6239754;23;20039;-74
2023/09/28 00:16:08;;;;;;;14.80;10.45;;;18.60;99.90;;;;;;6242285;23;20095;-74
2023/09/28 00:18:55;;;;;;;16.17;9.88;;;18.60;99.90;;;;;;6241669;23;20069;-74
2023/09/28 00:21:41;;;;;;;19.25;11.50;;;18.60;99.90;;;;;;6241542;23;20054;-73
2023/09/28 00:24:27;;;;;;;16.17;10.73;;;18.60;99.90;;;;;;6239187;23;20319;-74
2023/09/28 00:27:13;;;;;;;16.40;10.25;;;18.50;99.90;;;;;;6239684;23;20019;-74
2023/09/28 00:29:59;;;;;;;15.50;9.60;;;18.50;99.90;;;;;;6240326;23;20047;-75
2023/09/28 00:32:46;;;;;;;14.55;9.32;;;18.50;99.90;;;;;;6241029;23;20020;-61
2023/09/28 00:35:31;;;;;;;15.00;9.65;;;18.50;99.90;;;;;;6241613;23;20004;-61
2023/09/28 00:38:17;;;;;;;15.73;10.52;;;18.50;99.90;;;;;;6240863;23;20454;-61
2023/09/28 00:41:04;;;;;;;12.57;9.50;;;18.40;99.90;;;;;;6241017;23;20012;-61
2023/09/28 00:43:50;;;;;;;13.95;10.23;;;18.40;99.90;;;;;;6241919;23;20341;-60
2023/09/28 00:46:37;;;;;;;12.88;9.25;;;18.40;99.90;;;;;;6239751;23;20319;-60
2023/09/28 00:49:24;;;;;;;14.15;10.00;;;18.30;99.90;;;;;;6239965;23;20008;-61
2023/09/28 00:52:12;;;;;;;14.60;9.73;;;18.30;99.90;;;;;;6240540;23;20020;-61
2023/09/28 00:54:59;;;;;;;15.40;9.38;;;18.30;99.90;;;;;;6241992;23;20386;-62
2023/09/28 00:57:47;;;;;;;14.50;9.55;;;18.30;99.90;;;;;;6239621;23;20433;-61
2023/09/28 01:00:34;;;;;;;17.40;11.05;;;18.30;99.90;;;;;;6239789;23;20004;-61
2023/09/28 01:03:20;;;;;;;14.02;10.18;;;18.20;99.90;;;;;;6239682;23;20054;-61
2023/09/28 01:06:08;;;;;;;21.30;9.75;;;18.20;99.90;;;;;;6238306;23;20039;-61
2023/09/28 01:08:53;;;;;;;14.60;10.25;;;18.20;99.90;;;;;;6240060;23;20012;-61
2023/09/28 01:11:41;;;;;;;10.95;9.35;;;18.20;99.90;;;;;;6239519;23;20400;-60
2023/09/28 01:14:27;;;;;;;13.25;9.30;;;18.10;99.90;;;;;;6239937;23;20008;-60
2023/09/28 01:17:13;;;;;;;12.80;9.68;;;18.10;99.90;;;;;;6239259;23;20035;-60
2023/09/28 01:19:59;;;;;;;19.15;9.55;;;18.10;99.90;;;;;;6239305;23;20342;-60
2023/09/28 01:22:45;;;;;;;15.95;9.85;;;18.10;99.90;;;;;;6239698;23;20452;-63
2023/09/28 01:25:32;;;;;;;17.65;10.15;;;18.10;99.90;;;;;;6240023;23;20311;-59
2023/09/28 01:28:18;;;;;;;15.98;10.48;;;18.10;99.90;;;;;;6239096;23;20404;-61
2023/09/28 01:31:04;;;;;;;13.35;10.32;;;18.00;99.90;;;;;;6239175;23;20573;-60
2023/09/28 01:33:50;;;;;;;13.13;10.02;;;18.00;99.90;;;;;;6240096;23;20015;-60
2023/09/28 01:36:36;;;;;;;12.02;9.40;;;18.00;99.90;;;;;;6239674;23;20036;-60
2023/09/28 01:39:22;;;;;;;12.43;9.63;;;18.00;99.90;;;;;;6239407;23;20012;-60
2023/09/28 01:42:08;;;;;;;14.80;9.85;;;18.00;99.90;;;;;;6240561;23;20047;-60
2023/09/28 01:44:54;;;;;;;14.93;10.35;;;18.00;99.90;;;;;;6240580;23;20019;-60
2023/09/28 01:47:39;;;;;;;14.48;10.23;;;17.90;99.90;;;;;;6241066;23;20012;-61
2023/09/28 01:50:25;;;;;;;13.70;9.52;;;17.90;99.90;;;;;;6239277;23;20019;-60
2023/09/28 01:53:11;;;;;;;16.20;10.95;;;17.90;99.90;;;;;;6240896;23;20012;-60
2023/09/28 01:56:02;;;;;;;19.33;10.32;;;17.90;99.90;;;;;;6239918;22;20000;-60
2023/09/28 01:58:49;;;;;;;14.60;8.93;;;17.90;99.90;;;;;;6240576;23;20362;-61
2023/09/28 02:01:35;;;;;;;19.38;10.18;;;17.80;99.90;;;;;;6240601;23;20046;-61
2023/09/28 02:04:21;;;;;;;15.13;10.05;;;17.80;99.90;;;;;;6241201;23;20031;-61
2023/09/28 02:07:07;;;;;;;15.30;9.65;;;17.80;99.90;;;;;;6240063;23;20453;-62
2023/09/28 02:09:53;;;;;;;12.88;9.68;;;17.80;99.90;;;;;;6239541;23;20346;-61
2023/09/28 02:12:40;;;;;;;13.43;10.10;;;17.80;99.90;;;;;;6240080;23;20361;-62
2023/09/28 02:15:26;;;;;;;15.15;10.73;;;17.70;99.90;;;;;;6239955;23;20441;-61
2023/09/28 02:18:13;;;;;;;13.60;10.13;;;17.70;99.90;;;;;;6241080;23;20346;-62
2023/09/28 02:20:59;;;;;;;13.57;9.57;;;17.70;99.90;;;;;;6238345;23;20091;-61
2023/09/28 02:23:45;;;;;;;14.07;9.73;;;17.70;99.90;;;;;;6239746;23;20004;-60
2023/09/28 02:26:31;;;;;;;14.45;10.10;;;17.70;99.90;;;;;;6239978;23;20008;-73
2023/09/28 02:29:17;;;;;;;13.20;10.18;;;17.70;99.90;;;;;;6238122;23;20078;-74
2023/09/28 02:32:03;;;;;;;17.45;10.18;;;17.60;99.90;;;;;;6238695;23;20032;-73
2023/09/28 02:34:49;;;;;;;14.93;10.05;;;17.60;99.90;;;;;;6238900;23;20004;-74
2023/09/28 02:37:35;;;;;;;13.50;10.20;;;17.60;99.90;;;;;;6239319;23;20031;-73
2023/09/28 02:40:23;;;;;;;12.77;9.82;;;17.60;99.90;;;;;;6240943;23;20012;-74
2023/09/28 02:43:10;;;;;;;14.77;10.45;;;17.60;99.90;;;;;;6239714;23;20019;-73
2023/09/28 02:45:56;;;;;;;13.10;10.18;;;17.60;99.90;;;;;;6237262;23;20012;-74
2023/09/28 02:48:41;;;;;;;12.88;9.10;;;17.50;99.90;;;;;;6238581;23;20020;-73
2023/09/28 02:51:27;;;;;;;11.20;9.02;;;17.50;99.90;;;;;;6238991;23;20043;-73
2023/09/28 02:54:13;;;;;;;18.35;10.55;;;17.50;99.90;;;;;;6238934;23;20158;-74
2023/09/28 02:56:59;;;;;;;13.02;10.23;;;17.50;99.90;;;;;;6237741;22;20028;-72
2023/09/28 02:59:45;;;;;;;16.98;9.45;;;17.40;99.90;;;;;;6238701;23;20679;-73
2023/09/28 03:02:33;;;;;;;11.73;9.25;;;17.40;99.90;;;;;;6240116;23;20525;-73
2023/09/28 03:05:22;;;;;;;13.00;9.75;;;17.40;99.90;;;;;;6239169;23;20092;-72
2023/09/28 03:08:12;;;;;;;13.93;9.50;;;17.40;99.90;;;;;;6238410;23;20043;-74
2023/09/28 03:10:58;;;;;;;12.95;9.65;;;17.30;99.90;;;;;;6240649;23;20050;-73
2023/09/28 03:13:44;;;;;;;14.02;9.43;;;17.30;99.90;;;;;;6216193;23;20012;-74
2023/09/28 03:16:30;;;;;;;12.90;10.00;;;17.30;99.90;;;;;;6239111;23;20385;-74
2023/09/28 03:19:16;;;;;;;14.25;9.52;;;17.30;99.90;;;;;;6241495;23;20012;-73
2023/09/28 03:22:02;;;;;;;11.88;8.85;;;17.30;99.90;;;;;;6239066;23;20028;-76
2023/09/28 03:24:48;;;;;;;14.57;9.00;;;17.30;99.90;;;;;;6238551;23;20008;-73
2023/09/28 03:27:33;;;;;;;17.80;9.60;;;17.20;99.90;;;;;;6239789;23;20008;-73
2023/09/28 03:30:24;;;;;;;12.50;8.82;;;17.20;99.90;;;;;;6240131;23;20005;-73
2023/09/28 03:33:10;;;;;;;10.80;8.50;;;17.20;99.90;;;;;;6238767;23;20030;-75
2023/09/28 03:35:56;;;;;;;13.60;9.57;;;17.10;99.90;;;;;;6239044;23;20489;-73
2023/09/28 03:38:42;;;;;;;13.63;9.50;;;17.10;99.90;;;;;;6239858;23;20066;-73
2023/09/28 03:41:28;;;;;;;11.20;9.50;;;17.10;99.90;;;;;;6239129;23;20126;-73
2023/09/28 03:44:14;;;;;;;13.32;9.07;;;17.10;99.90;;;;;;6240123;23;20016;-73
2023/09/28 03:47:00;;;;;;;14.35;8.75;;;17.10;99.90;;;;;;6241262;23;20350;-73
2023/09/28 03:49:46;;;;;;;14.48;9.13;;;17.10;99.90;;;;;;6241224;23;20445;-73
2023/09/28 03:52:34;;;;;;;14.80;8.65;;;17.10;99.90;;;;;;6241453;23;20043;-74
2023/09/28 03:55:23;;;;;;;14.43;10.05;;;17.10;99.90;;;;;;6239795;22;20016;-73
2023/09/28 03:58:09;;;;;;;14.40;9.63;;;17.10;99.90;;;;;;6241354;23;20051;-74
2023/09/28 04:00:57;;;;;;;13.00;9.70;;;17.10;99.90;;;;;;6241203;23;20066;-75
2023/09/28 04:03:43;;;;;;;12.02;8.70;;;17.00;99.90;;;;;;6241575;23;20016;-73
2023/09/28 04:06:29;;;;;;;12.95;8.98;;;17.00;99.90;;;;;;6241275;23;20464;-76
2023/09/28 04:09:15;;;;;;;14.43;8.38;;;17.00;99.90;;;;;;6240655;23;20015;-73
2023/09/28 04:12:01;;;;;;;12.63;8.75;;;17.00;99.90;;;;;;6240697;23;20023;-73
2023/09/28 04:14:47;;;;;;;12.45;9.15;;;17.00;99.90;;;;;;6239839;23;20318;-72
2023/09/28 04:17:34;;;;;;;13.93;9.40;;;17.00;99.90;;;;;;6243635;23;20454;-72
2023/09/28 04:20:20;;;;;;;13.73;9.13;;;17.00;99.90;;;;;;6239158;23;20008;-71
2023/09/28 04:23:08;;;;;;;14.60;9.23;;;16.90;99.90;;;;;;6240431;23;20008;-75
2023/09/28 04:25:54;;;;;;;15.68;8.82;;;16.90;99.90;;;;;;6239888;23;20012;-75
2023/09/28 04:28:40;;;;;;;11.60;8.48;;;16.90;99.90;;;;;;6240651;23;20027;-74
2023/09/28 04:31:26;;;;;;;14.35;9.88;;;16.90;99.90;;;;;;6241855;23;20048;-75
2023/09/28 04:34:13;;;;;;;12.60;8.35;;;16.90;99.90;;;;;;6240097;23;20346;-75
2023/09/28 04:36:59;;;;;;;13.32;9.45;;;16.90;99.90;;;;;;6239816;23;20485;-74
2023/09/28 04:39:45;;;;;;;13.38;9.32;;;16.90;99.90;;;;;;6239846;23;20008;-75
2023/09/28 04:42:31;;;;;;;10.95;8.80;;;16.90;99.90;;;;;;6240214;23;20110;-74
2023/09/28 04:45:18;;;;;;;12.18;8.43;;;16.90;99.90;;;;;;6240783;23;20000;-75
2023/09/28 04:48:05;;;;;;;13.07;9.40;;;16.80;99.90;;;;;;6241503;23;20019;-74
2023/09/28 04:50:50;;;;;;;10.70;8.50;;;16.90;99.90;;;;;;6240856;23;20098;-76
2023/09/28 04:53:36;;;;;;;17.42;9.25;;;16.80;99.90;;;;;;6240445;23;20011;-74
2023/09/28 04:56:22;;;;;;;13.10;9.05;;;16.80;99.90;;;;;;6239121;22;20425;-74
2023/09/28 04:59:08;;;;;;;12.85;9.60;;;16.80;99.90;;;;;;6241329;23;20020;-74
2023/09/28 05:01:55;;;;;;;12.10;9.10;;;16.80;99.90;;;;;;6239696;23;20008;-74
2023/09/28 05:04:41;;;;;;;12.25;9.10;;;16.80;99.90;;;;;;6238936;23;20008;-74
2023/09/28 05:07:26;;;;;;;20.15;10.32;;;16.80;99.90;;;;;;6239176;23;20311;-75
2023/09/28 05:10:12;;;;;;;17.52;9.68;;;16.80;99.90;;;;;;6239067;23;20008;-75
2023/09/28 05:12:58;;;;;;;14.20;9.55;;;16.80;99.90;;;;;;6241087;23;20133;-75
2023/09/28 05:15:44;;;;;;;14.65;8.85;;;16.80;99.90;;;;;;6240304;23;20111;-75
2023/09/28 05:18:30;;;;;;;13.82;9.18;;;16.80;99.90;;;;;;6240816;23;20398;-75
2023/09/28 05:21:17;;;;;;;13.60;9.13;;;16.80;99.90;;;;;;6241596;23;20087;-76
2023/09/28 05:24:03;;;;;;;13.90;9.75;;;16.80;99.90;;;;;;6240311;23;20012;-75
2023/09/28 05:26:49;;;;;;;12.60;8.88;;;16.80;99.90;;;;;;6240784;23;20038;-76
2023/09/28 05:29:35;;;;;;;14.88;8.13;;;16.80;99.90;;;;;;6240862;23;20438;-76
2023/09/28 05:32:21;;;;;;;14.02;8.60;;;16.80;99.90;;;;;;6241358;23;20111;-61
2023/09/28 05:35:07;;;;;;;15.98;9.57;;;16.80;99.90;;;;;;6240008;23;20011;-61
2023/09/28 05:37:53;;;;;;;14.10;9.35;;;16.90;99.90;;;;;;6241061;23;20018;-61
2023/09/28 05:40:39;;;;;;;13.27;8.93;;;16.90;99.90;;;;;;6239936;23;20015;-60
2023/09/28 05:43:25;;;;;;;14.48;10.07;;;16.90;99.90;;;;;;6240755;23;20012;-60
2023/09/28 05:46:11;;;;;;;12.20;8.85;;;16.90;99.90;;;;;;6241432;23;20043;-59
2023/09/28 05:48:57;;;;;;;13.43;8.48;;;16.90;99.90;;;;;;6241346;23;20004;-59
2023/09/28 05:51:44;;;;;;;15.45;10.18;;;16.90;99.90;;;;;;6239402;23;20027;-58
2023/09/28 05:54:30;;;;;;;13.43;9.80;;;16.90;99.90;;;;;;6239238;23;20521;-59
2023/09/28 05:57:16;;;;;;;13.95;9.65;;;16.90;99.90;;;;;;6238409;22;20454;-60
2023/09/28 06:00:07;;;;;;;17.70;9.75;;;17.00;99.90;;;;;;6240019;23;20402;-61
2023/09/28 06:02:53;;;;;;;12.73;8.75;;;17.00;99.90;;;;;;6240349;23;20004;-61
2023/09/28 06:05:40;;;;;;;13.95;8.82;;;17.10;99.90;;;;;;6241783;23;20016;-61
2023/09/28 06:08:26;;;;;;;15.13;9.80;;;17.00;99.90;;;;;;6239176;23;20008;-62
2023/09/28 06:11:13;;;;;;;13.85;8.93;;;17.10;99.90;;;;;;6240001;23;20016;-61
2023/09/28 06:13:59;;;;;;;21.05;8.73;;;17.20;99.90;;;;;;6240633;23;20381;-73
2023/09/28 06:16:45;;;;;;;13.85;9.18;;;17.20;99.90;;;;;;6238277;23;20019;-73
2023/09/28 06:19:31;;;;;;;16.25;9.52;;;17.20;99.90;;;;;;6239696;23;20095;-72
2023/09/28 06:22:17;;;;;;;10.70;8.02;;;17.20;99.90;;;;;;6238483;23;20095;-72
2023/09/28 06:25:04;;;;;;;15.98;10.50;;;17.30;99.90;;;;;;6240100;23;20095;-77
2023/09/28 06:27:50;;;;;;;15.32;9.32;;;17.30;99.90;;;;;;6240005;23;20063;-76
2023/09/28 06:30:36;;;;;;;17.02;8.75;;;17.40;99.90;;;;;;6239254;23;20388;-75
2023/09/28 06:33:24;;;;;;;14.77;8.43;;;17.40;99.90;;;;;;6239562;23;20089;-74
2023/09/28 06:36:10;;;;;;;14.88;8.93;;;17.40;99.90;;;;;;6239594;23;20027;-75
2023/09/28 06:38:56;;;;;;;14.38;8.73;;;17.50;99.90;;;;;;6239822;23;20019;-75
2023/09/28 06:41:42;;;;;;;12.38;7.90;;;17.60;99.90;;;;;;6240614;23;20095;-73
2023/09/28 06:44:28;;;;;;;15.90;9.85;;;17.60;99.90;;;;;;6238959;23;20354;-74
2023/09/28 06:47:14;;;;;;;16.08;9.48;;;17.60;99.90;;;;;;6239262;23;20031;-74
2023/09/28 06:50:00;;;;;;;13.68;9.55;;;17.70;99.90;;;;;;6238782;23;20438;-75
2023/09/28 06:52:46;;;;;;;16.63;8.70;;;17.80;99.90;;;;;;6239953;23;20031;-76
2023/09/28 06:55:32;;;;;;;12.65;9.27;;;17.80;99.90;;;;;;6239008;22;20426;-75
2023/09/28 06:58:19;;;;;;;15.88;9.55;;;17.90;99.90;;;;;;6239297;23;20031;-76
2023/09/28 07:01:05;;;;;;;18.67;9.98;;;17.90;99.90;;;;;;6239489;23;20404;-77
2023/09/28 07:03:52;;;;;;;12.85;8.90;;;18.00;99.90;;;;;;6238389;23;20091;-76
2023/09/28 07:06:38;;;;;;;15.48;8.60;;;18.00;99.90;;;;;;6237988;23;20012;-76
2023/09/28 07:09:24;;;;;;;15.07;8.60;;;18.10;99.90;;;;;;6238330;23;20051;-77
2023/09/28 07:12:10;;;;;;;16.30;9.75;;;18.20;99.90;;;;;;6237301;23;20016;-77
2023/09/28 07:14:56;;;;;;;19.25;8.63;;;18.30;99.90;;;;;;6238589;23;20014;-78
2023/09/28 07:17:42;;;;;;;20.45;9.88;;;18.30;99.90;;;;;;6237441;23;20016;-76
2023/09/28 07:20:29;;;;;;;17.73;9.68;;;18.40;99.90;;;;;;6237220;23;20031;-75
2023/09/28 07:23:15;;;;;;;19.80;9.23;;;18.40;99.90;;;;;;6239655;23;20438;-76
2023/09/28 07:26:01;;;;;;;19.42;9.82;;;18.50;99.90;;;;;;6239791;23;20095;-77
2023/09/28 07:28:48;;;;;;;15.48;9.70;;;18.60;99.90;;;;;;6239932;23;20046;-74
2023/09/28 07:31:34;;;;;;;15.13;8.50;;;18.60;99.90;;;;;;6239313;23;20051;-77
2023/09/28 07:34:20;;;;;;;20.13;8.95;;;18.70;99.90;;;;;;6238333;23;20095;-78
2023/09/28 07:37:07;;;;;;;11.95;8.88;;;18.80;99.90;;;;;;6238653;23;20012;-77
2023/09/28 07:39:53;;;;;;;16.92;8.48;;;18.80;99.90;;;;;;6238695;23;20187;-77
2023/09/28 07:42:41;;;;;;;19.73;10.65;;;18.90;99.90;;;;;;6238037;23;20008;-78
2023/09/28 07:45:27;;;;;;;16.15;9.15;;;18.90;99.90;;;;;;6239489;23;20000;-79
2023/09/28 07:48:13;;;;;;;19.83;9.55;;;19.00;99.90;;;;;;6238781;23;20046;-80
2023/09/28 07:50:59;;;;;;;18.92;10.00;;;19.00;99.90;;;;;;6239213;23;20115;-78
2023/09/28 07:53:44;;;;;;;17.73;10.88;;;19.10;99.90;;;;;;6238139;23;20004;-78
2023/09/28 07:56:31;;;;;;;24.55;9.95;;;19.20;99.90;;;;;;6239813;22;20008;-77
2023/09/28 07:59:17;;;;;;;18.08;9.45;;;19.20;99.90;;;;;;6239407;23;20020;-77
2023/09/28 08:02:09;;;;;;;16.27;9.35;;;19.30;99.90;;;;;;6239383;23;20091;-77
2023/09/28 08:04:55;;;;;;;19.88;10.32;;;19.40;99.90;;;;;;6238422;23;20040;-78
2023/09/28 08:07:42;;;;;;;18.60;10.15;;;19.40;99.90;;;;;;6239046;23;20439;-78
2023/09/28 08:10:28;;;;;;;20.75;10.02;;;19.50;99.90;;;;;;6238761;23;20004;-78
2023/09/28 08:13:15;;;;;;;13.85;9.38;;;19.60;99.90;;;;;;6238501;23;20044;-77
2023/09/28 08:16:01;;;;;;;17.10;9.90;;;19.60;99.90;;;;;;6237947;23;20012;-76
2023/09/28 08:18:48;;;;;;;13.68;9.25;;;19.70;99.90;;;;;;6238899;23;20012;-76
2023/09/28 08:21:34;;;;;;;14.70;9.32;;;19.80;99.90;;;;;;6239210;23;20016;-76
2023/09/28 08:24:20;;;;;;;13.57;8.85;;;19.90;99.90;;;;;;6239862;23;20065;-78
2023/09/28 08:27:05;;;;;;;16.45;8.65;;;19.90;99.90;;;;;;6237902;23;20019;-77
2023/09/28 08:29:51;;;;;;;14.75;8.98;;;20.00;99.90;;;;;;6238398;23;20008;-78
2023/09/28 08:32:38;;;;;;;16.67;9.27;;;20.10;99.90;;;;;;6239974;23;20016;-77
2023/09/28 08:35:23;;;;;;;18.85;8.90;;;20.10;99.90;;;;;;6241744;23;20082;-77
2023/09/28 08:38:09;;;;;;;12.77;8.48;;;20.20;99.90;;;;;;6240243;23;20395;-61
2023/09/28 08:41:00;;;;;;;14.10;8.52;;;20.30;99.90;;;;;;6240016;23;20374;-61
2023/09/28 08:43:56;;;;;;;13.88;9.35;;;20.40;99.90;;;;;;6238457;23;20008;-62
2023/09/28 08:46:43;;;;;;;17.33;8.73;;;20.50;99.90;;;;;;6242306;23;20488;-62
2023/09/28 08:49:32;;;;;;;20.85;8.23;;;20.50;99.90;;;;;;6239978;23;20012;-62
2023/09/28 08:52:19;;;;;;;12.40;9.30;;;20.60;99.90;;;;;;6243182;23;20012;-62
2023/09/28 08:55:06;;;;;;;11.60;7.72;;;20.70;99.90;;;;;;6241264;22;20095;-62
2023/09/28 08:57:53;;;;;;;11.93;7.28;;;20.70;99.90;;;;;;6239474;23;20427;-62
2023/09/28 09:00:40;;;;;;;11.23;7.65;;;20.90;99.90;;;;;;6240054;23;20319;-62
2023/09/28 09:03:27;;;;;;;16.15;9.10;;;20.90;99.90;;;;;;6241205;23;20430;-62
2023/09/28 09:06:13;;;;;;;11.13;7.90;;;21.00;99.90;;;;;;6238223;23;20087;-61
2023/09/28 09:09:01;;;;;;;13.98;7.78;;;21.10;99.90;;;;;;6239639;23;20023;-61
2023/09/28 09:11:52;;;;;;;11.90;7.97;;;21.20;99.90;;;;;;6239294;23;20027;-61
2023/09/28 09:14:38;;;;;;;12.82;8.40;;;21.30;99.90;;;;;;6242339;23;20008;-62
2023/09/28 09:17:34;;;;;;;14.18;8.18;;;21.30;99.90;;;;;;6239853;23;20211;-64
2023/09/28 09:20:21;;;;;;;15.25;8.25;;;21.40;99.90;;;;;;6239646;23;20384;-64
2023/09/28 09:23:12;;;;;;;10.30;7.10;;;21.50;99.90;;;;;;6239966;23;20008;-62
2023/09/28 09:25:58;;;;;;;12.23;7.60;;;21.60;99.90;;;;;;6239083;23;20016;-62
2023/09/28 09:28:48;;;;;;;10.63;7.05;;;21.70;99.90;;;;;;6240256;23;20019;-62
2023/09/28 09:31:38;;;;;;;9.15;6.50;;;21.80;99.90;;;;;;6239324;23;20024;-61
2023/09/28 09:34:24;;;;;;;11.90;7.18;;;21.80;99.90;;;;;;6242463;23;20012;-62
2023/09/28 09:37:12;;;;;;;10.35;5.78;;;21.90;99.90;;;;;;6239301;23;20012;-62
2023/09/28 09:40:18;;;;;;;13.30;8.05;;;22.00;99.90;;;;;;6239225;23;20135;-62
2023/09/28 09:43:06;;;;;;;8.27;5.90;;;22.00;99.90;;;;;;6241026;23;20015;-62
2023/09/28 09:45:53;;;;;;;12.70;7.00;;;22.20;99.90;;;;;;6240479;23;20457;-62
2023/09/28 09:48:40;;;;;;;11.07;6.43;;;22.20;99.70;;;;;;6240523;23;20053;-64
2023/09/28 09:51:27;;;;;;;10.23;6.57;;;22.30;99.70;;;;;;6238590;23;20094;-62
2023/09/28 09:54:14;;;;;;;12.48;5.93;;;22.40;99.60;;;;;;6242238;23;20086;-62
2023/09/28 09:57:04;;;;;;;11.25;6.50;;;22.50;99.40;;;;;;6239907;22;20016;-65
2023/09/28 09:59:53;;;;;;;11.45;6.60;;;22.50;99.30;;;;;;6239762;23;20500;-62
2023/09/28 10:02:42;;;;;;;10.02;5.50;;;22.60;99.20;;;;;;6239749;23;20430;-61
2023/09/28 10:05:29;;;;;;;9.00;5.88;;;22.70;99.10;;;;;;6238551;23;20031;-63
2023/09/28 10:08:16;;;;;;;9.45;6.40;;;22.80;98.90;;;;;;6239557;23;20082;-61
2023/09/28 10:11:04;;;;;;;9.48;5.22;;;22.90;98.80;;;;;;6237946;23;20027;-61
2023/09/28 10:13:50;;;;;;;8.27;5.72;;;23.00;98.60;;;;;;6241399;23;20008;-61
2023/09/28 10:16:37;;;;;;;10.88;5.25;;;23.10;98.40;;;;;;6240373;23;20442;-61
2023/09/28 10:19:25;;;;;;;7.38;5.50;;;23.10;98.50;;;;;;6239887;23;20095;-61
2023/09/28 10:22:12;;;;;;;7.03;5.13;;;23.30;98.10;;;;;;6238918;23;20335;-61
2023/09/28 10:24:58;;;;;;;8.25;5.18;;;23.40;97.80;;;;;;6238381;23;20123;-61
2023/09/28 10:27:46;;;;;;;7.50;5.13;;;23.50;97.70;;;;;;6242338;23;20090;-62
2023/09/28 10:30:32;;;;;;;8.27;4.72;;;23.60;97.40;;;;;;6239643;23;20008;-62
2023/09/28 10:33:19;;;;;;;7.65;4.90;;;23.70;97.20;;;;;;6239730;23;20430;-62
2023/09/28 10:36:13;;;;;;;7.13;4.15;;;23.80;97.00;;;;;;6239442;23;20016;-61
2023/09/28 10:39:15;;;;;;;6.15;3.80;;;23.80;96.50;;;;;;6239567;23;20019;-62
2023/09/28 10:42:12;;;;;;;6.15;4.28;;;23.90;96.50;;;;;;6239791;23;20430;-62
2023/09/28 10:45:00;;;;;;;9.45;4.45;;;24.00;96.00;;;;;;6243172;23;20008;-62
2023/09/28 10:47:45;;;;;;;8.60;5.00;;;24.10;96.00;;;;;;6240615;23;20015;-62
2023/09/28 10:50:35;;;;;;;6.13;3.90;;;24.10;95.70;;;;;;6240108;23;20062;-62
2023/09/28 10:53:21;;;;;;;5.90;3.85;;;24.20;95.10;;;;;;6240903;23;20012;-62
2023/09/28 10:56:08;;;;;;;8.48;5.05;;;24.30;95.10;;;;;;6239368;22;20012;-62
2023/09/28 10:59:00;;;;;;;9.63;4.43;;;24.30;95.00;;;;;;6208263;23;20054;-73
2023/09/28 11:01:47;;;;;;;5.65;4.32;;;24.30;94.90;;;;;;6208246;23;20061;-72
2023/09/28 11:04:37;;;;;;;8.35;4.03;;;24.40;95.00;;;;;;6207983;23;20450;-71
2023/09/28 11:07:23;;;;;;;6.28;4.40;;;24.50;94.60;;;;;;6211637;23;20032;-71
2023/09/28 11:10:09;;;;;;;7.55;4.20;;;24.60;94.60;;;;;;6211770;23;20015;-73
2023/09/28 11:12:55;;;;;;;6.07;4.10;;;24.70;94.20;;;;;;6209498;23;20016;-72
2023/09/28 11:15:41;;;;;;;8.52;4.47;;;24.70;94.00;;;;;;6209195;23;20423;-72
2023/09/28 11:18:27;;;;;;;11.35;4.18;;;24.70;93.80;;;;;;6208151;23;20095;-72
2023/09/28 11:21:14;;;;;;;5.68;4.05;;;24.80;93.40;;;;;;6207996;23;20009;-71
2023/09/28 11:24:02;;;;;;;6.60;3.75;;;24.90;93.20;;;;;;6209762;23;20012;-71
2023/09/28 11:26:48;;;;;;;8.05;4.22;;;24.90;93.10;;;;;;6210768;23;20434;-72
2023/09/28 11:29:34;;;;;;;5.82;3.85;;;25.00;92.90;;;;;;6208910;23;20016;-71
2023/09/28 11:32:21;;;;;;;17.92;4.22;;;25.00;92.90;;;;;;6187509;23;20401;-71
2023/09/28 11:35:07;;;;;;;6.35;3.90;;;25.10;92.70;;;;;;6209176;23;20004;-71
2023/09/28 11:37:58;;;;;;;4.57;2.90;;;25.10;92.30;;;;;;6207968;23;20009;-71
2023/09/28 11:40:44;;;;;;;7.18;3.60;;;25.20;92.00;;;;;;6209931;23;20021;-71
2023/09/28 11:43:33;;;;;;;6.45;3.50;;;25.30;91.90;;;;;;6208603;23;20438;-71
2023/09/28 11:46:27;;;;;;;5.80;3.65;;;25.30;91.80;;;;;;6209043;23;20009;-72
2023/09/28 11:49:16;;;;;;;4.18;3.15;;;25.40;91.70;;;;;;6207337;23;20386;-72
2023/09/28 11:52:03;;;;;;;5.15;4.03;;;25.50;91.60;;;;;;6208371;23;20056;-72
2023/09/28 11:54:49;;;;;;;6.65;3.35;;;25.60;91.30;;;;;;6209203;23;20078;-71
2023/09/28 11:57:36;;;;;;;5.72;3.10;;;25.60;90.80;;;;;;6220929;23;20020;-71
2023/09/28 12:00:24;;;;;;;8.95;3.65;;;25.80;90.70;;;;;;6237738;23;20058;-71
2023/09/28 12:03:10;;;;;;;9.25;3.38;;;25.90;90.60;;;;;;6240595;23;20329;-71
2023/09/28 12:05:56;;;;;;;5.47;3.70;;;25.90;90.40;;;;;;6241416;23;20402;-72
2023/09/28 12:08:42;;;;;;;4.43;3.20;;;26.00;90.10;;;;;;6242177;23;20461;-72
2023/09/28 12:11:27;;;;;;;5.90;3.80;;;26.10;90.00;;;;;;6241624;23;20472;-71
2023/09/28 12:14:13;;;;;;;5.25;3.47;;;26.20;89.20;;;;;;6242511;23;20508;-71
2023/09/28 12:16:59;;;;;;;6.45;3.95;;;26.20;88.70;;;;;;6242083;23;20062;-72
2023/09/28 12:19:45;;;;;;;6.15;3.55;;;26.20;88.10;;;;;;6241851;23;20095;-69
2023/09/28 12:22:31;;;;;;;5.40;3.10;;;26.30;88.70;;;;;;6239668;23;20005;-71
2023/09/28 12:25:18;;;;;;;5.57;3.08;;;26.30;88.50;;;;;;6243298;23;20008;-71
2023/09/28 12:28:04;;;;;;;6.13;3.50;;;26.50;88.10;;;;;;6243058;23;20122;-70
2023/09/28 12:30:50;;;;;;;5.95;3.20;;;26.50;88.80;;;;;;6242024;23;20019;-71
2023/09/28 12:33:37;;;;;;;7.35;3.28;;;26.60;88.20;;;;;;6241668;23;20359;-71
2023/09/28 12:36:23;;;;;;;4.53;3.03;;;26.70;88.10;;;;;;6241268;23;20426;-71
2023/09/28 12:39:10;;;;;;;5.57;3.15;;;26.90;87.70;;;;;;6241881;23;20019;-70
2023/09/28 12:41:58;;;;;;;6.00;3.13;;;27.00;87.50;;;;;;6241750;23;20107;-71
2023/09/28 12:44:44;;;;;;;5.30;3.70;;;27.10;86.40;;;;;;6241914;23;20036;-70
2023/09/28 12:47:31;;;;;;;6.28;2.58;;;27.20;85.10;;;;;;6240665;23;20062;-72
2023/09/28 12:50:18;;;;;;;5.10;3.10;;;27.30;85.40;;;;;;6241897;23;20031;-71
2023/09/28 12:53:04;;;;;;;7.63;3.00;;;27.40;85.60;;;;;;6241492;23;20030;-69
2023/09/28 12:55:50;;;;;;;4.18;2.97;;;27.40;85.20;;;;;;6240425;22;20095;-72
2023/09/28 12:58:36;;;;;;;5.35;2.95;;;27.40;85.20;;;;;;6240233;23;20501;-71
2023/09/28 13:01:22;;;;;;;4.78;3.53;;;27.50;84.40;;;;;;6240880;23;20019;-71
2023/09/28 13:04:08;;;;;;;4.38;3.30;;;27.50;83.70;;;;;;6239357;23;20008;-71
2023/09/28 13:06:54;;;;;;;7.53;3.03;;;27.50;83.50;;;;;;6240529;23;20040;-71
2023/09/28 13:09:42;;;;;;;8.38;3.42;;;27.50;82.90;;;;;;6240013;23;20091;-71
2023/09/28 13:12:28;;;;;;;4.30;3.05;;;27.60;82.50;;;;;;6239760;23;20403;-70
2023/09/28 13:15:15;;;;;;;4.68;3.20;;;27.60;82.40;;;;;;6239114;23;20042;-70
2023/09/28 13:18:06;;;;;;;4.90;3.10;;;27.70;82.10;;;;;;6240753;23;20060;-70
2023/09/28 13:20:52;;;;;;;7.38;3.20;;;27.70;81.60;;;;;;6241575;23;20008;-70
2023/09/28 13:23:39;;;;;;;9.90;3.30;;;27.70;81.70;;;;;;6240493;23;20058;-70
2023/09/28 13:26:25;;;;;;;8.38;3.58;;;27.80;81.50;;;;;;6240798;23;20035;-70
2023/09/28 13:29:11;;;;;;;5.28;3.20;;;27.80;81.20;;;;;;6240102;23;20453;-71
2023/09/28 13:31:57;;;;;;;4.30;2.83;;;27.80;81.40;;;;;;6240793;23;20095;-70
2023/09/28 13:34:44;;;;;;;6.03;3.38;;;27.90;81.40;;;;;;6240263;23;20066;-70
2023/09/28 13:37:30;;;;;;;5.45;3.75;;;27.90;81.00;;;;;;6240449;23;20409;-71
2023/09/28 13:40:28;;;;;;;6.63;3.67;;;27.90;80.70;;;;;;6220204;23;20489;-71
2023/09/28 13:43:14;;;;;;;6.63;3.47;;;27.90;80.60;;;;;;6240403;23;20023;-71
2023/09/28 13:46:00;;;;;;;7.15;4.15;;;27.90;81.50;;;;;;6240294;23;20008;-71
2023/09/28 13:48:46;;;;;;;7.97;3.95;;;27.80;81.90;;;;;;6239290;23;20012;-71
2023/09/28 13:51:32;;;;;;;8.75;3.58;;;27.80;82.30;;;;;;6241091;23;20422;-71
2023/09/28 13:54:18;;;;;;;6.80;3.65;;;27.80;82.50;;;;;;6238810;23;20111;-72
2023/09/28 13:57:07;;;;;;;11.25;3.80;;;27.80;82.70;;;;;;6238936;22;20020;-71
2023/09/28 13:59:56;;;;;;;5.28;4.00;;;27.80;83.00;;;;;;6238374;23;20023;-70
2023/09/28 14:02:42;;;;;;;6.13;4.05;;;27.80;83.10;;;;;;6237968;23;20030;-71
2023/09/28 14:05:29;;;;;;;4.97;3.50;;;27.80;83.40;;;;;;6239784;23;20016;-70
2023/09/28 14:08:15;;;;;;;6.03;3.65;;;27.80;83.00;;;;;;6239533;23;20004;-71
2023/09/28 14:11:09;;;;;;;6.68;3.50;;;27.80;83.00;;;;;;6240066;23;20024;-70
2023/09/28 14:13:56;;;;;;;6.53;4.15;;;27.80;83.20;;;;;;6237452;23;20401;-70
2023/09/28 14:16:43;;;;;;;7.45;3.97;;;27.80;83.00;;;;;;6240149;23;20012;-70
2023/09/28 14:19:29;;;;;;;5.57;3.35;;;27.80;82.60;;;;;;6237914;23;20414;-71